Bethel, Louisiana
Current Conditions -  °F | °C
As of 9:35 PM on Wednesday 22 Oct 2014 (Local Time) from KIER Reporting Station
Clear Clear  
Wind Chill: 61°   Ceiling: Unl
Heat Index: 61°   Visibility: 10mi
Dew Point: 55°   Wind: 3mph
Humidity: 80%   Direction: 50°NE
Pressure: 30.13"   Gusts: NA
Location:  31.7926°N, 93.4001°W
Report Text: KIER 230235Z AUTO 05003KT 10SM CLR 16/13 A3013 RMK AO2 T01610127
Loading
Personal Weather Stations






























Interactive Weather Map
Tropical Storm Tracking
New forecast layout! Learn more

10-Day Weather Forecast

Advertisements
Track Severe Weather on mobile